Time;durP1;ratioP1;P1;durP2;ratioP2;P2;SDS_P1;SDS_P2;PMS_P1;PMS_P2;Temp;Humidity;BMP_temperature;BMP_pressure;BME280_temperature;BME280_humidity;BME280_pressure;Samples;Min_cycle;Max_cycle;Signal;HPM_P1;HPM_P2
2023/04/07 00:01:22;;;;;;;11.68;8.57;;;4.80;99.80;;;;;;5036330;28;20116;-79
2023/04/07 00:03:47;;;;;;;10.45;7.25;;;4.80;99.00;;;;;;5041059;28;20025;-79
2023/04/07 00:06:13;;;;;;;9.13;7.63;;;4.80;99.50;;;;;;5041865;28;20434;-80
2023/04/07 00:08:39;;;;;;;8.75;7.78;;;4.70;99.40;;;;;;5039651;28;20029;-80
2023/04/07 00:11:05;;;;;;;11.63;7.47;;;4.70;99.70;;;;;;5043180;28;20654;-80
2023/04/07 00:13:30;;;;;;;10.20;7.95;;;4.70;99.80;;;;;;5042746;28;20025;-79
2023/04/07 00:15:56;;;;;;;10.07;7.80;;;4.60;99.90;;;;;;5041619;28;20032;-79
2023/04/07 00:18:21;;;;;;;11.20;8.77;;;4.70;99.80;;;;;;5028572;28;20029;-80
2023/04/07 00:20:47;;;;;;;10.57;7.55;;;4.70;99.90;;;;;;5031912;28;20060;-80
2023/04/07 00:23:13;;;;;;;10.60;8.02;;;4.60;99.90;;;;;;5039211;28;20026;-79
2023/04/07 00:25:38;;;;;;;10.77;8.57;;;4.60;99.90;;;;;;5035580;28;20660;-79
2023/04/07 00:28:04;;;;;;;9.68;7.20;;;4.60;99.90;;;;;;5046926;28;20120;-78
2023/04/07 00:30:29;;;;;;;9.65;7.70;;;4.60;99.90;;;;;;5035282;28;20160;-80
2023/04/07 00:32:55;;;;;;;11.40;8.35;;;4.50;99.90;;;;;;5037952;28;20480;-78
2023/04/07 00:35:21;;;;;;;9.40;7.57;;;4.50;99.90;;;;;;5028551;28;20112;-79
2023/04/07 00:37:47;;;;;;;9.30;7.32;;;4.40;99.90;;;;;;5041872;28;20103;-80
2023/04/07 00:40:12;;;;;;;8.90;7.57;;;4.40;99.90;;;;;;5046877;28;20025;-80
2023/04/07 00:42:38;;;;;;;11.38;7.82;;;4.40;99.90;;;;;;5035596;28;20029;-80
2023/04/07 00:45:05;;;;;;;9.07;8.10;;;4.40;99.90;;;;;;5047051;28;20026;-79
2023/04/07 00:47:30;;;;;;;11.90;8.15;;;4.40;99.90;;;;;;5025562;28;20104;-80
2023/04/07 00:49:56;;;;;;;8.55;7.25;;;4.30;99.90;;;;;;5041512;28;20109;-79
2023/04/07 00:52:27;;;;;;;10.23;7.15;;;4.30;99.90;;;;;;5031433;28;20029;-79
2023/04/07 00:54:54;;;;;;;10.48;7.30;;;4.30;99.90;;;;;;5039114;28;20523;-81
2023/04/07 00:57:21;;;;;;;8.85;7.93;;;4.30;99.90;;;;;;5035278;28;20025;-79
2023/04/07 00:59:50;;;;;;;10.73;7.82;;;4.20;99.90;;;;;;5027612;28;20030;-79
2023/04/07 01:02:19;;;;;;;9.93;7.32;;;4.10;99.90;;;;;;5038458;28;20049;-78
2023/04/07 01:04:57;;;;;;;8.27;6.78;;;4.10;99.90;;;;;;5026270;28;20502;-79
2023/04/07 01:08:05;;;;;;;10.35;7.25;;;4.10;99.90;;;;;;5043044;28;20040;-80
2023/04/07 01:10:50;;;;;;;10.18;7.72;;;4.00;99.90;;;;;;5037915;28;20098;-79
2023/04/07 01:13:51;;;;;;;7.38;6.50;;;4.00;99.90;;;;;;5034503;28;20033;-78
2023/04/07 01:16:27;;;;;;;9.25;7.15;;;4.00;99.90;;;;;;5037169;28;20124;-79
2023/04/07 01:18:56;;;;;;;9.95;7.05;;;3.90;99.90;;;;;;5040558;28;20117;-79
2023/04/07 01:21:27;;;;;;;11.95;7.25;;;3.90;99.90;;;;;;5045058;28;20061;-80
2023/04/07 01:24:08;;;;;;;10.75;7.38;;;3.90;99.90;;;;;;5051827;28;20052;-79
2023/04/07 01:26:34;;;;;;;8.82;7.20;;;3.80;99.90;;;;;;5042634;28;20065;-78
2023/04/07 01:29:18;;;;;;;9.38;7.30;;;3.80;99.90;;;;;;5037845;28;20068;-79
2023/04/07 01:31:46;;;;;;;9.07;7.10;;;3.80;99.90;;;;;;5040921;28;20048;-78
2023/04/07 01:34:13;;;;;;;9.38;7.10;;;3.80;99.90;;;;;;5040916;28;20031;-79
2023/04/07 01:36:39;;;;;;;8.85;6.22;;;3.70;99.90;;;;;;5044067;28;20131;-79
2023/04/07 01:39:06;;;;;;;6.82;6.15;;;3.70;99.90;;;;;;5034296;28;20029;-79
2023/04/07 01:41:32;;;;;;;9.85;6.88;;;3.70;99.90;;;;;;5043468;28;20052;-80
2023/04/07 01:44:01;;;;;;;7.30;6.55;;;3.70;99.90;;;;;;5042232;28;20037;-79
2023/04/07 01:46:26;;;;;;;8.90;6.45;;;3.60;99.90;;;;;;5032339;28;20040;-79
2023/04/07 01:48:52;;;;;;;8.23;6.78;;;3.60;99.90;;;;;;5032871;28;20022;-80
2023/04/07 01:51:21;;;;;;;8.38;6.38;;;3.60;99.90;;;;;;5033878;28;20111;-81
2023/04/07 01:53:48;;;;;;;8.57;6.13;;;3.60;99.90;;;;;;5033469;28;20029;-80
2023/04/07 01:56:14;;;;;;;9.65;6.82;;;3.60;99.90;;;;;;5039209;28;20121;-78
2023/04/07 01:58:40;;;;;;;7.78;6.55;;;3.60;99.90;;;;;;5042961;28;20021;-79
2023/04/07 02:01:05;;;;;;;6.05;5.40;;;3.50;99.90;;;;;;5028029;28;20566;-80
2023/04/07 02:04:04;;;;;;;7.30;6.32;;;3.50;99.90;;;;;;5043225;28;20029;-79
2023/04/07 02:06:37;;;;;;;9.93;5.90;;;3.50;99.90;;;;;;5034642;28;20077;-78
2023/04/07 02:09:06;;;;;;;6.00;5.40;;;3.50;99.90;;;;;;5044650;28;20017;-79
2023/04/07 02:11:34;;;;;;;7.50;5.90;;;3.40;99.90;;;;;;5038457;28;20021;-78
2023/04/07 02:14:02;;;;;;;7.13;5.63;;;3.40;99.90;;;;;;5044791;28;20029;-80
2023/04/07 02:16:31;;;;;;;7.63;5.93;;;3.40;99.90;;;;;;5040526;28;20018;-78
2023/04/07 02:18:58;;;;;;;6.40;5.72;;;3.40;99.90;;;;;;5043128;28;20026;-79
2023/04/07 02:21:26;;;;;;;7.35;5.75;;;3.40;99.90;;;;;;5045649;28;20120;-79
2023/04/07 02:23:51;;;;;;;7.65;5.38;;;3.40;99.90;;;;;;5040663;28;20025;-80
2023/04/07 02:26:17;;;;;;;6.40;5.57;;;3.40;99.90;;;;;;5034792;28;20048;-79
2023/04/07 02:28:42;;;;;;;7.53;5.68;;;3.40;99.90;;;;;;5038735;28;20025;-79
2023/04/07 02:31:08;;;;;;;6.55;5.15;;;3.30;99.90;;;;;;5027982;28;20037;-79
2023/04/07 02:33:33;;;;;;;6.25;5.65;;;3.30;99.90;;;;;;5036805;28;20052;-78
2023/04/07 02:35:59;;;;;;;7.85;5.65;;;3.30;99.90;;;;;;5039957;28;20017;-78
2023/04/07 02:38:24;;;;;;;5.95;5.35;;;3.30;99.90;;;;;;5029477;28;20084;-78
2023/04/07 02:40:50;;;;;;;6.18;4.90;;;3.30;99.90;;;;;;5026975;28;20026;-80
2023/04/07 02:43:16;;;;;;;5.82;4.72;;;3.30;99.90;;;;;;5044210;28;20030;-79
2023/04/07 02:45:42;;;;;;;7.63;5.30;;;3.30;99.90;;;;;;5030404;28;20030;-81
2023/04/07 02:48:07;;;;;;;6.70;5.72;;;3.30;99.90;;;;;;5035496;28;20021;-78
2023/04/07 02:50:33;;;;;;;6.18;4.88;;;3.30;99.90;;;;;;5031363;28;20080;-79
2023/04/07 02:52:58;;;;;;;7.25;4.80;;;3.30;99.90;;;;;;5040390;28;20030;-79
2023/04/07 02:55:24;;;;;;;7.60;5.13;;;3.30;99.90;;;;;;5037188;28;20117;-78
2023/04/07 02:57:50;;;;;;;6.28;5.00;;;3.30;99.90;;;;;;5034844;28;20041;-79
2023/04/07 03:00:15;;;;;;;8.15;5.55;;;3.30;99.90;;;;;;5042638;28;20220;-80
2023/04/07 03:02:41;;;;;;;6.55;5.28;;;3.30;99.90;;;;;;5027684;28;20084;-78
2023/04/07 03:05:07;;;;;;;6.18;5.13;;;3.30;99.90;;;;;;5045197;28;20365;-79
2023/04/07 03:07:32;;;;;;;8.02;5.53;;;3.20;99.90;;;;;;5036986;28;20022;-79
2023/04/07 03:09:58;;;;;;;5.82;4.45;;;3.20;99.90;;;;;;5037573;28;20145;-78
2023/04/07 03:12:23;;;;;;;6.95;5.00;;;3.20;99.90;;;;;;5041175;28;20140;-79
2023/04/07 03:14:49;;;;;;;5.78;4.55;;;3.20;99.90;;;;;;5042147;28;20021;-78
2023/04/07 03:17:14;;;;;;;8.20;5.20;;;3.20;99.90;;;;;;5044602;28;20207;-79
2023/04/07 03:19:40;;;;;;;8.68;5.20;;;3.20;99.90;;;;;;5037557;28;20029;-78
2023/04/07 03:22:06;;;;;;;5.55;4.25;;;3.20;99.90;;;;;;5046607;28;20107;-79
2023/04/07 03:24:31;;;;;;;5.45;4.95;;;3.20;99.90;;;;;;5045032;28;20032;-78
2023/04/07 03:26:57;;;;;;;6.38;5.13;;;3.10;99.90;;;;;;5037870;28;20032;-79
2023/04/07 03:29:22;;;;;;;7.43;5.20;;;3.10;99.90;;;;;;5045500;28;20503;-80
2023/04/07 03:31:48;;;;;;;5.25;4.68;;;3.00;99.90;;;;;;5043771;28;20045;-78
2023/04/07 03:34:14;;;;;;;5.88;4.72;;;3.00;99.90;;;;;;5054254;28;20036;-79
2023/04/07 03:36:40;;;;;;;5.40;4.85;;;3.00;99.90;;;;;;5041573;28;20116;-79
2023/04/07 03:39:05;;;;;;;6.82;4.82;;;3.00;99.90;;;;;;5036574;28;20135;-79
2023/04/07 03:41:31;;;;;;;6.90;4.65;;;3.00;99.90;;;;;;5044708;28;20102;-79
2023/04/07 03:43:57;;;;;;;5.25;4.43;;;3.00;99.90;;;;;;5039279;28;20041;-80
2023/04/07 03:46:25;;;;;;;5.72;5.05;;;3.00;99.90;;;;;;5052923;28;20029;-80
2023/04/07 03:48:51;;;;;;;4.88;4.05;;;3.00;99.90;;;;;;5040021;28;20049;-79
2023/04/07 03:51:17;;;;;;;7.38;5.00;;;3.00;99.90;;;;;;5034954;28;20602;-79
2023/04/07 03:53:43;;;;;;;5.32;4.55;;;3.00;99.90;;;;;;5038100;28;20075;-80
2023/04/07 03:56:08;;;;;;;7.70;5.20;;;3.00;99.90;;;;;;5036639;28;20117;-80
2023/04/07 03:58:34;;;;;;;7.07;4.78;;;2.90;99.90;;;;;;5042413;28;20047;-79
2023/04/07 04:01:00;;;;;;;7.97;4.80;;;2.90;99.90;;;;;;5040751;28;20025;-80
2023/04/07 04:03:25;;;;;;;6.00;4.90;;;2.90;99.90;;;;;;5050969;28;20024;-79
2023/04/07 04:05:51;;;;;;;5.55;4.68;;;2.90;99.90;;;;;;5025711;28;20025;-80
2023/04/07 04:08:16;;;;;;;6.53;4.43;;;2.90;99.90;;;;;;5041533;28;20055;-78
2023/04/07 04:10:42;;;;;;;6.40;5.22;;;2.90;99.90;;;;;;5039186;28;20076;-79
2023/04/07 04:13:08;;;;;;;6.47;5.25;;;3.00;99.90;;;;;;5046366;28;20420;-79
2023/04/07 04:15:33;;;;;;;7.95;5.70;;;2.90;99.90;;;;;;5045702;28;20271;-79
2023/04/07 04:17:59;;;;;;;6.57;5.05;;;2.90;99.90;;;;;;5043963;28;20021;-80
2023/04/07 04:20:24;;;;;;;7.22;5.30;;;2.90;99.90;;;;;;5042945;28;20022;-79
2023/04/07 04:22:50;;;;;;;6.20;4.95;;;2.90;99.90;;;;;;5039045;28;20022;-81
2023/04/07 04:25:16;;;;;;;6.47;4.78;;;2.90;99.90;;;;;;5041716;28;20133;-80
2023/04/07 04:27:41;;;;;;;5.70;5.10;;;2.90;99.90;;;;;;5038893;28;20087;-80
2023/04/07 04:30:08;;;;;;;5.53;4.85;;;2.90;99.90;;;;;;5042601;28;20032;-79
2023/04/07 04:32:33;;;;;;;5.43;4.50;;;2.90;99.90;;;;;;5044363;28;20495;-80
2023/04/07 04:34:59;;;;;;;7.68;5.45;;;2.90;99.90;;;;;;5041415;28;20026;-81
2023/04/07 04:37:25;;;;;;;8.13;4.97;;;2.80;99.90;;;;;;5041198;28;20025;-78
2023/04/07 04:39:51;;;;;;;6.07;4.70;;;2.90;99.90;;;;;;5041274;28;20021;-80
2023/04/07 04:42:17;;;;;;;6.35;5.10;;;2.90;99.90;;;;;;5044148;28;20064;-78
2023/04/07 04:44:42;;;;;;;6.55;4.95;;;2.90;99.90;;;;;;5043274;28;20502;-79
2023/04/07 04:47:08;;;;;;;7.00;4.97;;;2.90;99.90;;;;;;5046289;28;20025;-81
2023/04/07 04:49:33;;;;;;;6.97;5.78;;;2.90;99.90;;;;;;5045430;28;20108;-79
2023/04/07 04:51:59;;;;;;;6.70;4.70;;;2.90;99.90;;;;;;5033887;28;20029;-81
2023/04/07 04:54:24;;;;;;;5.35;4.85;;;2.80;99.90;;;;;;5040749;28;20021;-79
2023/04/07 04:56:50;;;;;;;7.53;5.15;;;2.80;99.90;;;;;;5042360;28;20020;-80
2023/04/07 04:59:16;;;;;;;8.13;5.90;;;2.80;99.90;;;;;;5037981;28;20483;-79
2023/04/07 05:01:41;;;;;;;7.47;5.03;;;2.80;99.90;;;;;;5036568;28;20041;-79
2023/04/07 05:04:08;;;;;;;6.32;5.05;;;2.70;99.90;;;;;;5043564;28;20035;-80
2023/04/07 05:06:34;;;;;;;5.63;4.60;;;2.70;99.90;;;;;;5032847;28;20022;-80
2023/04/07 05:09:00;;;;;;;6.65;4.93;;;2.70;99.90;;;;;;5040759;28;20059;-81
2023/04/07 05:11:26;;;;;;;7.45;5.32;;;2.60;99.90;;;;;;5035917;28;20056;-80
2023/04/07 05:13:51;;;;;;;5.80;5.18;;;2.60;99.90;;;;;;5042035;28;20033;-80
2023/04/07 05:16:17;;;;;;;7.13;4.80;;;2.60;99.90;;;;;;5045421;28;20035;-80
2023/04/07 05:18:42;;;;;;;6.88;5.40;;;2.60;99.90;;;;;;5044137;28;20116;-81
2023/04/07 05:21:08;;;;;;;7.35;5.13;;;2.60;99.90;;;;;;5034602;28;20049;-80
2023/04/07 05:23:35;;;;;;;9.52;4.85;;;2.60;99.90;;;;;;5038988;28;20078;-80
2023/04/07 05:26:00;;;;;;;5.97;4.78;;;2.50;99.90;;;;;;5034665;28;20694;-81
2023/04/07 05:28:26;;;;;;;7.70;5.32;;;2.50;99.90;;;;;;5039692;28;20080;-80
2023/04/07 05:30:51;;;;;;;8.23;4.80;;;2.50;99.90;;;;;;5026357;28;20048;-80
2023/04/07 05:33:17;;;;;;;6.68;5.38;;;2.50;99.90;;;;;;5043783;28;20026;-79
2023/04/07 05:35:46;;;;;;;5.80;5.00;;;2.50;99.90;;;;;;5037675;28;20028;-79
2023/04/07 05:38:12;;;;;;;5.75;4.80;;;2.50;99.90;;;;;;5033561;28;20492;-79
2023/04/07 05:40:39;;;;;;;8.40;5.00;;;2.50;99.90;;;;;;5036541;28;20025;-78
2023/04/07 05:43:04;;;;;;;6.82;5.57;;;2.60;99.90;;;;;;5037845;28;20013;-79
2023/04/07 05:45:30;;;;;;;5.85;5.15;;;2.60;99.90;;;;;;5041768;28;20017;-79
2023/04/07 05:47:55;;;;;;;7.05;5.00;;;2.70;99.90;;;;;;5038995;28;20580;-79
2023/04/07 05:50:21;;;;;;;5.13;4.45;;;2.70;99.90;;;;;;5032286;28;20026;-81
2023/04/07 05:52:46;;;;;;;6.15;5.25;;;2.70;99.90;;;;;;5046354;28;20032;-79
2023/04/07 05:55:12;;;;;;;7.60;5.40;;;2.80;99.90;;;;;;5037151;28;20029;-80
2023/04/07 05:57:37;;;;;;;7.20;5.10;;;2.90;99.90;;;;;;5033021;28;20093;-79
2023/04/07 06:00:03;;;;;;;5.00;4.50;;;2.90;99.90;;;;;;5039340;28;20013;-80
2023/04/07 06:02:29;;;;;;;6.65;5.10;;;3.00;99.90;;;;;;5041490;28;20027;-80
2023/04/07 06:04:55;;;;;;;8.05;4.65;;;3.10;99.90;;;;;;5030621;28;20033;-79
2023/04/07 06:07:20;;;;;;;7.35;5.38;;;3.10;99.90;;;;;;5036757;28;20033;-80
2023/04/07 06:09:46;;;;;;;6.93;5.30;;;3.20;99.90;;;;;;5036390;28;20500;-79
2023/04/07 06:12:12;;;;;;;5.72;5.07;;;3.30;99.90;;;;;;5036041;28;20378;-80
2023/04/07 06:14:38;;;;;;;5.82;5.15;;;3.30;99.90;;;;;;5027641;28;20159;-80
2023/04/07 06:17:03;;;;;;;5.63;4.78;;;3.40;99.90;;;;;;5039372;28;20021;-79
2023/04/07 06:19:29;;;;;;;7.47;5.60;;;3.40;99.90;;;;;;5045227;28;20021;-79
2023/04/07 06:21:54;;;;;;;7.15;4.75;;;3.50;99.90;;;;;;5041822;28;20595;-79
2023/04/07 06:24:24;;;;;;;8.73;5.60;;;3.60;99.90;;;;;;5038973;28;20021;-79
2023/04/07 06:26:51;;;;;;;8.20;5.53;;;3.60;99.90;;;;;;5040292;28;20399;-78
2023/04/07 06:29:17;;;;;;;7.43;5.47;;;3.70;99.90;;;;;;5038677;28;20136;-78
2023/04/07 06:31:42;;;;;;;6.57;5.13;;;3.80;99.90;;;;;;5043785;28;20559;-79
2023/04/07 06:34:08;;;;;;;5.32;3.92;;;3.80;99.90;;;;;;5038598;28;20040;-78
2023/04/07 06:36:34;;;;;;;6.40;5.30;;;4.00;99.90;;;;;;5042680;28;20035;-78
2023/04/07 06:39:00;;;;;;;7.45;5.50;;;4.10;99.90;;;;;;5038199;28;20082;-78
2023/04/07 06:41:25;;;;;;;6.20;4.90;;;4.10;99.90;;;;;;5035449;28;20061;-78
2023/04/07 06:43:51;;;;;;;6.68;5.30;;;4.20;99.90;;;;;;5035056;28;20025;-79
2023/04/07 06:46:17;;;;;;;7.28;4.75;;;4.30;99.90;;;;;;5044692;28;20032;-79
2023/04/07 06:48:43;;;;;;;7.55;4.93;;;4.40;99.90;;;;;;5051799;28;20027;-78
2023/04/07 06:51:08;;;;;;;7.78;5.60;;;4.50;99.90;;;;;;5036336;28;20036;-78
2023/04/07 06:53:34;;;;;;;7.22;5.40;;;4.60;99.90;;;;;;5022474;28;20439;-77
2023/04/07 06:56:08;;;;;;;6.70;5.90;;;4.70;99.90;;;;;;5044372;28;20411;-80
2023/04/07 06:58:34;;;;;;;5.97;5.10;;;4.90;99.90;;;;;;5045277;28;20068;-79
2023/04/07 07:01:00;;;;;;;6.70;5.53;;;5.00;99.90;;;;;;5043475;28;20083;-80
2023/04/07 07:03:28;;;;;;;9.00;5.43;;;5.10;99.90;;;;;;5041959;28;20033;-80
2023/04/07 07:05:57;;;;;;;6.57;4.75;;;5.30;99.90;;;;;;5043652;28;20021;-80
2023/04/07 07:08:24;;;;;;;7.07;5.22;;;5.40;99.90;;;;;;5040816;28;20108;-80
2023/04/07 07:10:49;;;;;;;5.95;4.45;;;5.60;99.90;;;;;;5039478;28;20500;-80
2023/04/07 07:13:15;;;;;;;5.72;4.65;;;5.70;99.90;;;;;;5040895;28;20108;-80
2023/04/07 07:15:40;;;;;;;7.05;5.15;;;5.90;99.90;;;;;;5031890;28;20405;-80
2023/04/07 07:18:06;;;;;;;9.90;5.28;;;6.10;99.90;;;;;;5039311;28;20025;-79
2023/04/07 07:20:31;;;;;;;5.20;4.40;;;6.30;99.90;;;;;;5044866;28;20056;-79
2023/04/07 07:22:58;;;;;;;6.35;4.68;;;6.40;99.90;;;;;;5040867;28;20029;-79
2023/04/07 07:25:25;;;;;;;7.93;4.93;;;6.60;99.90;;;;;;5039726;28;20021;-80
2023/04/07 07:27:52;;;;;;;5.93;4.55;;;6.90;98.40;;;;;;5046166;28;20365;-80
2023/04/07 07:30:19;;;;;;;6.22;5.38;;;7.10;98.00;;;;;;5036971;28;20051;-81
2023/04/07 07:32:45;;;;;;;6.78;4.68;;;7.30;97.40;;;;;;5026852;28;20025;-80
2023/04/07 07:35:10;;;;;;;4.78;4.32;;;7.50;96.20;;;;;;5040539;28;20021;-79
2023/04/07 07:37:36;;;;;;;4.72;3.67;;;7.70;95.40;;;;;;5038164;28;20029;-79
2023/04/07 07:40:02;;;;;;;5.53;4.85;;;7.90;94.90;;;;;;5039033;28;20159;-79
2023/04/07 07:42:29;;;;;;;7.88;5.03;;;8.10;95.40;;;;;;5024533;28;20071;-80
2023/04/07 07:44:55;;;;;;;8.05;5.30;;;8.30;95.00;;;;;;5044933;28;20055;-80
2023/04/07 07:47:21;;;;;;;5.70;4.22;;;8.50;93.00;;;;;;5044757;28;20098;-80
2023/04/07 07:49:46;;;;;;;6.25;4.68;;;8.60;92.60;;;;;;5042148;28;20162;-79
2023/04/07 07:52:12;;;;;;;6.55;4.18;;;8.80;92.40;;;;;;5042844;28;20029;-79
2023/04/07 07:54:38;;;;;;;4.60;4.15;;;8.90;91.50;;;;;;5044142;28;20082;-79
2023/04/07 07:57:04;;;;;;;5.40;4.82;;;8.90;91.80;;;;;;5042755;28;20017;-78
2023/04/07 07:59:30;;;;;;;6.07;3.97;;;9.00;91.40;;;;;;5041343;28;20021;-80
2023/04/07 08:01:57;;;;;;;6.45;4.65;;;9.10;91.20;;;;;;5042836;28;20032;-79
2023/04/07 08:04:22;;;;;;;5.70;4.63;;;9.20;91.90;;;;;;5048582;28;20021;-80
2023/04/07 08:06:49;;;;;;;6.82;4.05;;;9.30;90.60;;;;;;5043121;28;20025;-79
2023/04/07 08:09:15;;;;;;;6.20;4.60;;;9.40;90.30;;;;;;5042074;28;20029;-79
2023/04/07 08:11:41;;;;;;;6.80;4.07;;;9.50;88.60;;;;;;5044567;28;20024;-79
2023/04/07 08:14:06;;;;;;;5.60;4.28;;;9.50;89.40;;;;;;5040526;28;20013;-79
2023/04/07 08:16:32;;;;;;;6.53;4.03;;;9.60;89.70;;;;;;5043530;28;20459;-79
2023/04/07 08:18:57;;;;;;;7.80;4.28;;;9.70;87.50;;;;;;5034619;28;20120;-79
2023/04/07 08:21:23;;;;;;;6.82;4.40;;;9.80;89.40;;;;;;5043056;28;20025;-80
2023/04/07 08:23:49;;;;;;;4.22;3.85;;;9.90;87.50;;;;;;5041707;28;20043;-80
2023/04/07 08:26:14;;;;;;;7.38;4.50;;;10.00;85.70;;;;;;5035055;28;20109;-79
2023/04/07 08:28:40;;;;;;;7.13;4.10;;;10.10;84.10;;;;;;5043042;28;20053;-80
2023/04/07 08:31:06;;;;;;;9.45;4.50;;;10.20;86.50;;;;;;5040883;28;20128;-79
2023/04/07 08:33:31;;;;;;;5.07;4.22;;;10.30;83.80;;;;;;5043389;28;20040;-79
2023/04/07 08:35:57;;;;;;;5.13;4.00;;;10.30;82.00;;;;;;5036599;28;20026;-79
2023/04/07 08:38:23;;;;;;;4.53;3.63;;;10.40;82.20;;;;;;5044372;28;20111;-78
2023/04/07 08:40:58;;;;;;;5.65;4.63;;;10.60;84.30;;;;;;5031123;28;20683;-80
2023/04/07 08:43:25;;;;;;;8.43;4.07;;;10.70;81.10;;;;;;5041304;28;20021;-79
2023/04/07 08:45:54;;;;;;;5.47;4.15;;;10.90;86.50;;;;;;5037492;28;20403;-79
2023/04/07 08:48:27;;;;;;;5.40;3.92;;;11.00;81.40;;;;;;5046308;28;20100;-80
2023/04/07 08:50:53;;;;;;;6.43;4.07;;;11.10;80.20;;;;;;5040507;28;20017;-81
2023/04/07 08:53:26;;;;;;;4.45;3.75;;;11.30;81.20;;;;;;5041547;28;20021;-80
2023/04/07 08:55:53;;;;;;;4.30;3.83;;;11.40;79.20;;;;;;5043811;28;20021;-79
2023/04/07 08:58:20;;;;;;;4.57;4.07;;;11.50;81.20;;;;;;5048318;28;20079;-80
2023/04/07 09:00:48;;;;;;;5.25;3.78;;;11.60;78.30;;;;;;5035653;28;20493;-80
2023/04/07 09:03:15;;;;;;;5.88;4.53;;;11.50;77.90;;;;;;5039469;28;20399;-80
2023/04/07 09:05:43;;;;;;;5.47;4.57;;;11.50;77.00;;;;;;5040727;28;20117;-80
2023/04/07 09:08:09;;;;;;;5.78;4.47;;;11.50;77.40;;;;;;5028540;28;20025;-80
2023/04/07 09:10:36;;;;;;;7.38;5.00;;;11.50;77.00;;;;;;5038822;28;20028;-80
2023/04/07 09:13:01;;;;;;;5.50;4.00;;;11.40;77.10;;;;;;5042072;28;20036;-80
2023/04/07 09:15:30;;;;;;;5.20;4.70;;;11.50;77.80;;;;;;5041173;28;20017;-80
2023/04/07 09:17:57;;;;;;;5.93;4.95;;;11.50;76.30;;;;;;5040522;28;20018;-81
2023/04/07 09:20:23;;;;;;;6.90;5.60;;;11.50;75.80;;;;;;5045467;28;20041;-81
2023/04/07 09:22:49;;;;;;;6.28;5.03;;;11.50;76.80;;;;;;5041578;28;20812;-80
2023/04/07 09:25:25;;;;;;;5.35;4.72;;;11.60;78.30;;;;;;5032895;28;20021;-80
2023/04/07 09:28:03;;;;;;;5.50;5.00;;;11.70;76.90;;;;;;5041664;28;20107;-80
2023/04/07 09:30:32;;;;;;;6.68;4.72;;;11.60;75.50;;;;;;5042743;28;20052;-80
2023/04/07 09:32:59;;;;;;;6.13;4.63;;;11.60;77.50;;;;;;5047367;28;20028;-80
2023/04/07 09:35:27;;;;;;;6.95;4.60;;;11.70;77.80;;;;;;5044228;28;20108;-80
2023/04/07 09:38:06;;;;;;;5.65;4.70;;;11.90;76.60;;;;;;5046023;28;20037;-81
2023/04/07 09:40:32;;;;;;;6.80;4.57;;;12.00;79.00;;;;;;5040709;28;20017;-80
2023/04/07 09:42:58;;;;;;;6.82;4.35;;;12.20;75.90;;;;;;5027894;28;20014;-81
2023/04/07 09:45:27;;;;;;;4.55;4.15;;;12.20;75.50;;;;;;5041126;28;20903;-80
2023/04/07 09:47:54;;;;;;;5.35;4.53;;;12.20;75.60;;;;;;5047330;28;20038;-80
2023/04/07 09:50:38;;;;;;;5.57;4.68;;;12.30;74.00;;;;;;5034829;28;20029;-80
2023/04/07 09:53:03;;;;;;;5.55;4.63;;;12.20;71.40;;;;;;5048568;28;20021;-80
2023/04/07 09:55:29;;;;;;;5.20;4.50;;;11.90;71.90;;;;;;5041018;28;20028;-80
2023/04/07 09:57:55;;;;;;;6.88;4.82;;;11.70;71.30;;;;;;5045745;28;20028;-80
2023/04/07 10:00:21;;;;;;;6.15;4.25;;;11.60;72.10;;;;;;5034871;28;20392;-80
2023/04/07 10:02:49;;;;;;;7.90;5.57;;;11.50;72.40;;;;;;5048224;28;20075;-80
2023/04/07 10:05:15;;;;;;;4.95;4.15;;;11.60;73.80;;;;;;5041039;28;20049;-81
2023/04/07 10:07:41;;;;;;;7.57;4.47;;;11.70;75.20;;;;;;5043746;28;20041;-80
2023/04/07 10:10:07;;;;;;;7.35;4.57;;;11.70;74.20;;;;;;5034882;28;20025;-81
2023/04/07 10:12:37;;;;;;;5.25;4.57;;;11.70;74.30;;;;;;5038350;28;20132;-80
2023/04/07 10:15:03;;;;;;;6.28;4.22;;;11.40;73.00;;;;;;5038659;28;20095;-80
2023/04/07 10:17:31;;;;;;;5.38;4.55;;;11.20;74.40;;;;;;5027066;28;20025;-80
2023/04/07 10:20:01;;;;;;;5.45;4.32;;;11.20;75.80;;;;;;5040468;28;20022;-80
2023/04/07 10:22:28;;;;;;;4.90;4.35;;;11.30;75.40;;;;;;5043003;28;20205;-80
2023/04/07 10:24:58;;;;;;;5.07;4.53;;;11.60;78.30;;;;;;5042306;28;20032;-80
2023/04/07 10:27:31;;;;;;;5.38;4.65;;;11.70;78.10;;;;;;5031364;28;20027;-78
2023/04/07 10:29:57;;;;;;;5.70;4.78;;;11.60;73.00;;;;;;5049878;28;20032;-78
2023/04/07 10:32:24;;;;;;;5.25;4.38;;;11.20;74.30;;;;;;5055665;28;20065;-80
2023/04/07 10:34:49;;;;;;;6.55;4.38;;;11.20;76.90;;;;;;5038466;28;20014;-79
2023/04/07 10:37:19;;;;;;;4.80;4.30;;;11.30;76.00;;;;;;5056328;28;20036;-80
2023/04/07 10:39:44;;;;;;;7.53;4.53;;;11.40;77.70;;;;;;5042159;28;20071;-80
2023/04/07 10:42:35;;;;;;;4.90;4.45;;;11.50;75.90;;;;;;5036041;28;20021;-79
2023/04/07 10:45:01;;;;;;;5.47;4.45;;;11.60;75.50;;;;;;5048650;28;20454;-79
2023/04/07 10:47:27;;;;;;;7.88;5.45;;;11.50;76.20;;;;;;5040685;28;20532;-79
2023/04/07 10:50:11;;;;;;;5.75;4.90;;;11.50;74.20;;;;;;5039167;28;20112;-78
2023/04/07 10:52:37;;;;;;;5.43;4.90;;;11.40;77.20;;;;;;5050629;28;20032;-80
2023/04/07 10:55:28;;;;;;;6.57;4.47;;;11.40;76.60;;;;;;5034668;28;20017;-79
2023/04/07 10:58:22;;;;;;;5.45;4.95;;;11.40;76.60;;;;;;5040741;28;20123;-79
2023/04/07 11:01:15;;;;;;;6.60;4.97;;;11.50;77.30;;;;;;5035328;28;20056;-81
2023/04/07 11:03:52;;;;;;;4.97;4.50;;;11.50;75.00;;;;;;5026916;28;20026;-80
2023/04/07 11:06:18;;;;;;;8.15;4.70;;;11.60;75.30;;;;;;5025515;28;20468;-80
2023/04/07 11:08:45;;;;;;;6.80;5.00;;;11.60;74.80;;;;;;5030651;28;20064;-81
2023/04/07 11:11:13;;;;;;;5.20;4.60;;;11.60;76.00;;;;;;5043887;28;20025;-81
2023/04/07 11:13:41;;;;;;;4.80;4.30;;;11.70;75.50;;;;;;5042412;28;20086;-80
2023/04/07 11:16:07;;;;;;;7.82;5.45;;;11.60;77.10;;;;;;5035322;28;20024;-81
2023/04/07 11:18:33;;;;;;;6.47;4.43;;;11.50;77.60;;;;;;5045130;28;20033;-80
2023/04/07 11:20:59;;;;;;;7.03;4.80;;;11.60;82.00;;;;;;5043846;28;20018;-80
2023/04/07 11:23:28;;;;;;;6.32;4.65;;;11.60;79.00;;;;;;5043078;28;20029;-80
2023/04/07 11:26:01;;;;;;;6.40;4.43;;;11.50;80.60;;;;;;5042655;28;20026;-81
2023/04/07 11:28:28;;;;;;;5.95;4.20;;;11.30;81.70;;;;;;5038727;28;20092;-80
2023/04/07 11:30:55;;;;;;;6.63;4.10;;;11.40;80.20;;;;;;5041907;28;20068;-80
2023/04/07 11:33:23;;;;;;;5.93;4.18;;;11.40;82.80;;;;;;5030577;28;20025;-80
2023/04/07 11:36:00;;;;;;;5.90;3.60;;;11.40;81.30;;;;;;5050113;28;20025;-82
2023/04/07 11:38:27;;;;;;;4.65;3.83;;;11.40;76.40;;;;;;5050861;28;20455;-81
2023/04/07 11:40:55;;;;;;;4.05;3.58;;;11.40;76.10;;;;;;5046596;28;20099;-80
2023/04/07 11:43:23;;;;;;;4.20;3.20;;;11.40;77.60;;;;;;5044290;28;20052;-80
2023/04/07 11:46:12;;;;;;;4.50;3.65;;;11.40;77.30;;;;;;5051619;28;20570;-80
2023/04/07 11:48:40;;;;;;;5.18;3.60;;;11.40;79.10;;;;;;5045373;28;20064;-80
2023/04/07 11:51:14;;;;;;;5.65;3.10;;;11.50;77.30;;;;;;5037800;28;20083;-79
2023/04/07 11:53:40;;;;;;;6.85;3.78;;;11.50;78.20;;;;;;5047612;28;20022;-79
2023/04/07 11:56:15;;;;;;;5.63;4.05;;;11.50;76.10;;;;;;5047662;28;20028;-81
2023/04/07 11:58:50;;;;;;;7.22;4.72;;;11.40;77.30;;;;;;5045188;28;20027;-79
2023/04/07 12:01:15;;;;;;;4.32;3.15;;;11.20;75.80;;;;;;5037319;28;20047;-81
2023/04/07 12:03:54;;;;;;;5.28;3.58;;;11.10;76.10;;;;;;5036692;28;20018;-80
2023/04/07 12:06:49;;;;;;;5.85;3.67;;;11.10;77.50;;;;;;5040045;28;20146;-79
2023/04/07 12:09:28;;;;;;;5.00;3.67;;;11.20;77.10;;;;;;5027168;28;20526;-79
2023/04/07 12:11:56;;;;;;;5.70;3.85;;;11.20;78.10;;;;;;5050809;28;20101;-79
2023/04/07 12:14:22;;;;;;;5.60;3.35;;;11.10;77.70;;;;;;5049129;28;20037;-79
2023/04/07 12:16:47;;;;;;;5.40;3.47;;;10.80;79.10;;;;;;5042623;28;20041;-79
2023/04/07 12:19:13;;;;;;;6.03;2.47;;;10.70;81.10;;;;;;5045959;28;20112;-79
2023/04/07 12:21:39;;;;;;;2.95;2.33;;;10.80;82.00;;;;;;5045302;28;20029;-78
2023/04/07 12:24:04;;;;;;;2.70;2.10;;;10.90;81.20;;;;;;5050565;28;20115;-81
2023/04/07 12:26:30;;;;;;;3.30;2.20;;;10.90;81.20;;;;;;5052663;28;20057;-78
2023/04/07 12:28:57;;;;;;;2.55;2.03;;;10.80;82.00;;;;;;5048211;28;20025;-79
2023/04/07 12:31:23;;;;;;;3.08;1.65;;;10.70;82.60;;;;;;5052839;28;20239;-78
2023/04/07 12:33:48;;;;;;;3.17;2.00;;;10.80;84.50;;;;;;5050896;28;20281;-80
2023/04/07 12:36:15;;;;;;;2.92;2.67;;;11.00;81.40;;;;;;5046671;28;20025;-79
2023/04/07 12:38:40;;;;;;;3.25;1.83;;;11.20;82.80;;;;;;5037305;28;20025;-79
2023/04/07 12:41:06;;;;;;;1.60;1.50;;;11.30;82.00;;;;;;5045352;28;20040;-79
2023/04/07 12:43:34;;;;;;;2.50;2.05;;;11.30;81.40;;;;;;5028919;28;20076;-78
2023/04/07 12:46:00;;;;;;;2.40;2.20;;;11.40;80.50;;;;;;5052553;28;20032;-79
2023/04/07 12:48:26;;;;;;;2.40;2.25;;;11.20;82.90;;;;;;5045298;28;20024;-80
2023/04/07 12:50:52;;;;;;;6.80;2.97;;;11.10;81.70;;;;;;5026501;28;20476;-80
2023/04/07 12:55:47;;;;;;;2.33;1.90;;;10.90;83.80;;;;;;5043379;28;20045;-57
2023/04/07 12:58:13;;;;;;;2.53;1.90;;;10.90;84.70;;;;;;5049636;28;20025;-55